Time,TemperatureF,DewpointF,PressureIn,WindDirection,WindDirectionDegrees,WindSpeedMPH,WindSpeedGustMPH,Humidity,HourlyPrecipIn,Conditions,Clouds,dailyrainin,SolarRadiationWatts/m^2,SoftwareType,DateUTC
2013-05-17 00:03:00,60.0,60.0,-100.00,SSE,148,5.0,10.0,100,0.00,,,0.30,0.000000,,2013-05-17 05:03:00,
2013-05-17 00:32:00,60.0,60.0,-100.00,SSE,150,5.0,9.0,100,0.00,,,0.30,0.000000,,2013-05-17 05:32:00,
2013-05-17 00:43:00,60.0,60.0,-100.00,SSE,150,5.0,9.0,100,0.00,,,0.30,0.000000,,2013-05-17 05:43:00,
2013-05-17 00:52:00,60.0,60.0,-100.00,SSE,150,5.0,9.0,100,0.00,,,0.30,0.000000,,2013-05-17 05:52:00,
2013-05-17 01:02:00,60.0,60.0,-100.00,SSE,150,5.0,9.0,100,0.00,,,0.30,0.000000,,2013-05-17 06:02:00,
2013-05-17 01:32:00,61.0,61.0,-100.00,SE,125,3.0,9.0,100,0.00,,,0.30,0.000000,,2013-05-17 06:32:00,
2013-05-17 01:42:00,61.0,61.0,-100.00,SE,125,3.0,9.0,100,0.00,,,0.30,0.000000,,2013-05-17 06:42:00,
2013-05-17 01:52:00,61.0,61.0,-100.00,SE,125,3.0,9.0,100,0.00,,,0.30,0.000000,,2013-05-17 06:52:00,
2013-05-17 02:02:00,61.0,61.0,-100.00,SE,125,3.0,9.0,100,0.00,,,0.30,0.000000,,2013-05-17 07:02:00,
2013-05-17 02:32:00,60.0,60.0,-100.00,NNW,342,3.0,5.0,100,0.00,,,0.30,0.000000,,2013-05-17 07:32:00,
2013-05-17 02:43:00,60.0,60.0,-100.00,NNW,342,3.0,5.0,100,0.00,,,0.30,0.000000,,2013-05-17 07:43:00,
2013-05-17 02:53:00,60.0,60.0,-100.00,NNW,342,3.0,5.0,100,0.00,,,0.30,0.000000,,2013-05-17 07:53:00,
2013-05-17 03:02:00,60.0,60.0,-100.00,NNW,342,3.0,5.0,100,0.00,,,0.30,0.000000,,2013-05-17 08:02:00,
2013-05-17 03:34:00,60.0,60.0,-100.00,North,358,2.0,4.0,100,0.00,,,0.30,0.000000,,2013-05-17 08:34:00,
2013-05-17 03:43:00,60.0,60.0,-100.00,North,358,2.0,4.0,100,0.00,,,0.30,0.000000,,2013-05-17 08:43:00,
2013-05-17 03:52:00,60.0,60.0,-100.00,North,358,2.0,4.0,100,0.00,,,0.30,0.000000,,2013-05-17 08:52:00,
2013-05-17 04:02:00,60.0,60.0,-100.00,North,358,2.0,4.0,100,0.00,,,0.30,0.000000,,2013-05-17 09:02:00,
2013-05-17 04:33:00,60.0,60.0,-100.00,East,101,1.0,4.0,100,0.00,,,0.30,0.000000,,2013-05-17 09:33:00,
2013-05-17 04:42:00,60.0,60.0,-100.00,East,101,1.0,4.0,100,0.00,,,0.30,0.000000,,2013-05-17 09:42:00,
2013-05-17 04:53:00,60.0,60.0,-100.00,East,101,1.0,4.0,100,0.00,,,0.30,0.000000,,2013-05-17 09:53:00,
2013-05-17 05:03:00,60.0,60.0,-100.00,East,101,1.0,4.0,100,0.00,,,0.30,0.000000,,2013-05-17 10:03:00,
2013-05-17 05:33:00,60.0,60.0,-100.00,SSW,208,0.0,5.0,100,0.00,,,0.30,0.000000,,2013-05-17 10:33:00,
2013-05-17 05:42:00,60.0,60.0,-100.00,SSW,208,0.0,5.0,100,0.00,,,0.30,0.000000,,2013-05-17 10:42:00,
2013-05-17 05:54:00,60.0,60.0,-100.00,SSW,208,0.0,5.0,100,0.00,,,0.30,0.000000,,2013-05-17 10:54:00,
2013-05-17 06:02:00,60.0,60.0,-100.00,SSW,208,0.0,5.0,100,0.00,,,0.30,0.000000,,2013-05-17 11:02:00,
2013-05-17 06:34:00,60.0,60.0,-100.00,ENE,67,0.0,0.0,100,0.00,,,0.30,0.000000,,2013-05-17 11:34:00,
2013-05-17 06:42:00,60.0,60.0,-100.00,ENE,67,0.0,0.0,100,0.00,,,0.30,0.000000,,2013-05-17 11:42:00,
2013-05-17 06:53:00,60.0,60.0,-100.00,ENE,67,0.0,0.0,100,0.00,,,0.30,0.000000,,2013-05-17 11:53:00,
2013-05-17 07:03:00,60.0,60.0,-100.00,ENE,67,0.0,0.0,100,0.00,,,0.30,0.000000,,2013-05-17 12:03:00,
2013-05-17 07:33:00,61.0,61.0,-100.00,West,264,0.0,3.0,100,0.00,,,0.30,26.000000,,2013-05-17 12:33:00,
2013-05-17 07:43:00,61.0,61.0,-100.00,West,264,0.0,3.0,100,0.00,,,0.30,26.000000,,2013-05-17 12:43:00,
2013-05-17 07:53:00,61.0,61.0,-100.00,West,264,0.0,3.0,100,0.00,,,0.30,26.000000,,2013-05-17 12:53:00,
2013-05-17 08:03:00,61.0,61.0,-100.00,West,264,0.0,3.0,100,0.00,,,0.30,26.000000,,2013-05-17 13:03:00,
2013-05-17 08:33:00,63.0,63.0,-100.00,NW,318,2.0,4.0,100,0.00,,,0.27,177.000000,,2013-05-17 13:33:00,
2013-05-17 08:42:00,63.0,63.0,-100.00,NW,318,2.0,4.0,100,0.00,,,0.27,177.000000,,2013-05-17 13:42:00,
2013-05-17 08:52:00,63.0,63.0,-100.00,NW,318,2.0,4.0,100,0.00,,,0.27,177.000000,,2013-05-17 13:52:00,
2013-05-17 09:02:00,63.0,63.0,-100.00,NW,318,2.0,4.0,100,0.00,,,0.27,177.000000,,2013-05-17 14:02:00,
2013-05-17 09:34:00,66.0,66.0,-100.00,SSE,153,2.0,5.0,100,0.00,,,0.23,327.000000,,2013-05-17 14:34:00,
2013-05-17 09:43:00,66.0,66.0,-100.00,SSE,153,2.0,5.0,100,0.00,,,0.23,327.000000,,2013-05-17 14:43:00,
2013-05-17 09:53:00,66.0,66.0,-100.00,SSE,153,2.0,5.0,100,0.00,,,0.23,327.000000,,2013-05-17 14:53:00,
2013-05-17 10:03:00,66.0,66.0,-100.00,SSE,153,2.0,5.0,100,0.00,,,0.23,327.000000,,2013-05-17 15:03:00,
2013-05-17 10:37:00,67.0,64.0,-100.00,NNW,345,3.0,7.0,91,0.01,,,0.22,439.000000,,2013-05-17 15:37:00,
2013-05-17 10:47:00,67.0,64.0,-100.00,NNW,345,3.0,7.0,91,0.01,,,0.22,439.000000,,2013-05-17 15:47:00,
2013-05-17 10:57:00,67.0,64.0,-100.00,NNW,345,3.0,7.0,91,0.01,,,0.22,439.000000,,2013-05-17 15:57:00,
2013-05-17 11:07:00,67.0,64.0,-100.00,NNW,345,3.0,7.0,91,0.01,,,0.22,439.000000,,2013-05-17 16:07:00,
2013-05-17 11:08:00,71.0,65.0,-100.00,ENE,78,2.0,8.0,81,0.00,,,0.17,764.000000,,2013-05-17 16:08:00,
2013-05-17 11:37:00,71.0,65.0,-100.00,ENE,78,2.0,8.0,81,0.00,,,0.17,764.000000,,2013-05-17 16:37:00,
2013-05-17 11:50:00,71.0,65.0,-100.00,ENE,78,2.0,8.0,81,0.00,,,0.17,764.000000,,2013-05-17 16:50:00,
2013-05-17 11:56:00,71.0,65.0,-100.00,ENE,78,2.0,8.0,81,0.00,,,0.17,764.000000,,2013-05-17 16:56:00,
2013-05-17 12:08:00,72.0,68.0,-100.00,South,181,5.0,9.0,87,0.00,,,0.08,833.000000,,2013-05-17 17:08:00,
2013-05-17 12:40:00,72.0,-99.9,-100.00,South,181,5.0,9.0,87,0.00,,,0.08,833.000000,,2013-05-17 17:40:00,
2013-05-17 12:49:00,72.0,68.0,-100.00,South,181,5.0,9.0,87,0.00,,,0.08,833.000000,,2013-05-17 17:49:00,
2013-05-17 13:00:00,72.0,68.0,-100.00,South,181,5.0,9.0,87,0.00,,,0.08,833.000000,,2013-05-17 18:00:00,
2013-05-17 13:08:00,74.0,70.0,-100.00,SSE,164,5.0,10.0,86,0.00,,,0.06,780.000000,,2013-05-17 18:08:00,
2013-05-17 13:40:00,74.0,-99.9,-100.00,SSE,164,5.0,10.0,86,0.00,,,0.06,780.000000,,2013-05-17 18:40:00,
2013-05-17 13:50:00,-999.0,-99.9,-100.00,SSE,164,5.0,10.0,86,0.00,,,0.06,780.000000,,2013-05-17 18:50:00,
2013-05-17 14:00:00,74.0,-99.9,-100.00,SSE,164,5.0,10.0,86,0.00,,,0.06,780.000000,,2013-05-17 19:00:00,
2013-05-17 14:08:00,75.0,69.0,-100.00,South,176,6.0,11.0,81,0.00,,,-99.99,1088.000000,,2013-05-17 19:08:00,
2013-05-17 14:40:00,75.0,69.0,-100.00,South,176,6.0,11.0,81,0.00,,,-99.99,1088.000000,,2013-05-17 19:40:00,
2013-05-17 14:51:00,75.0,69.0,-100.00,South,176,6.0,11.0,81,0.00,,,-99.99,1088.000000,,2013-05-17 19:51:00,
2013-05-17 15:01:00,-999.0,-99.9,-100.00,South,176,6.0,11.0,81,0.00,,,-99.99,1088.000000,,2013-05-17 20:01:00,
2013-05-17 15:40:00,76.0,67.0,-100.00,SSE,167,7.0,12.0,74,0.00,,,0.02,994.000000,,2013-05-17 20:40:00,
2013-05-17 15:50:00,76.0,67.0,-100.00,SSE,167,7.0,12.0,74,0.00,,,0.02,994.000000,,2013-05-17 20:50:00,
2013-05-17 15:58:00,76.0,67.0,-100.00,SSE,167,7.0,12.0,74,0.00,,,0.02,994.000000,,2013-05-17 20:58:00,
2013-05-17 16:07:00,76.0,67.0,-100.00,SSE,167,7.0,12.0,74,0.00,,,0.02,994.000000,,2013-05-17 21:07:00,
2013-05-17 16:39:00,77.0,67.0,-100.00,South,187,7.0,11.0,72,0.00,,,0.02,925.000000,,2013-05-17 21:39:00,
2013-05-17 16:49:00,77.0,67.0,-100.00,South,187,7.0,11.0,72,0.00,,,0.02,925.000000,,2013-05-17 21:49:00,
2013-05-17 16:58:00,77.0,67.0,-100.00,South,187,7.0,11.0,72,0.00,,,0.02,925.000000,,2013-05-17 21:58:00,
2013-05-17 17:07:00,77.0,67.0,-100.00,South,187,7.0,11.0,72,0.00,,,0.02,925.000000,,2013-05-17 22:07:00,
2013-05-17 17:38:00,76.0,65.0,-100.00,South,182,7.0,11.0,68,0.00,,,0.01,755.000000,,2013-05-17 22:38:00,
2013-05-17 17:47:00,76.0,65.0,-100.00,South,182,7.0,11.0,68,0.00,,,0.01,755.000000,,2013-05-17 22:47:00,
2013-05-17 17:55:00,76.0,65.0,-100.00,South,182,7.0,11.0,68,0.00,,,0.01,755.000000,,2013-05-17 22:55:00,
2013-05-17 18:04:00,76.0,65.0,-100.00,South,182,7.0,11.0,68,0.00,,,0.01,755.000000,,2013-05-17 23:04:00,
2013-05-17 18:38:00,76.0,64.0,-100.00,South,191,7.0,12.0,67,0.00,,,-99.99,591.000000,,2013-05-17 23:38:00,
2013-05-17 18:47:00,76.0,64.0,-100.00,South,191,7.0,12.0,67,0.00,,,-99.99,591.000000,,2013-05-17 23:47:00,
2013-05-17 18:54:00,76.0,64.0,-100.00,South,191,7.0,12.0,67,0.00,,,-99.99,591.000000,,2013-05-17 23:54:00,
2013-05-17 19:02:00,76.0,64.0,-100.00,South,191,7.0,12.0,67,0.00,,,-99.99,591.000000,,2013-05-18 00:02:00,
2013-05-17 19:34:00,74.0,64.0,-100.00,South,177,5.0,10.0,72,0.00,,,0.01,325.000000,,2013-05-18 00:34:00,
2013-05-17 19:45:00,74.0,64.0,-100.00,South,177,5.0,10.0,72,0.00,,,0.01,325.000000,,2013-05-18 00:45:00,
2013-05-17 19:54:00,74.0,64.0,-100.00,South,177,5.0,10.0,72,0.00,,,0.01,325.000000,,2013-05-18 00:54:00,
2013-05-17 20:02:00,74.0,64.0,-100.00,South,177,5.0,10.0,72,0.00,,,0.01,325.000000,,2013-05-18 01:02:00,
2013-05-17 20:32:00,70.0,65.0,-100.00,SSE,168,4.0,7.0,85,0.00,,,0.01,95.000000,,2013-05-18 01:32:00,
2013-05-17 20:43:00,70.0,65.0,-100.00,SSE,168,4.0,7.0,85,0.00,,,0.01,95.000000,,2013-05-18 01:43:00,
2013-05-17 20:52:00,70.0,65.0,-100.00,SSE,168,4.0,7.0,85,0.00,,,0.01,95.000000,,2013-05-18 01:52:00,
2013-05-17 21:02:00,70.0,65.0,-100.00,SSE,168,4.0,7.0,85,0.00,,,0.01,95.000000,,2013-05-18 02:02:00,
2013-05-17 21:32:00,70.0,67.0,-100.00,SSE,150,6.0,10.0,90,0.00,,,0.01,2.000000,,2013-05-18 02:32:00,
2013-05-17 21:43:00,70.0,67.0,-100.00,SSE,150,6.0,10.0,90,0.00,,,0.01,2.000000,,2013-05-18 02:43:00,
2013-05-17 21:54:00,70.0,67.0,-100.00,SSE,150,6.0,10.0,90,0.00,,,0.01,2.000000,,2013-05-18 02:54:00,
2013-05-17 22:02:00,70.0,67.0,-100.00,SSE,150,6.0,10.0,90,0.00,,,0.01,2.000000,,2013-05-18 03:02:00,
2013-05-17 22:33:00,69.0,68.0,-100.00,SSE,154,6.0,10.0,98,0.00,,,0.01,0.000000,,2013-05-18 03:33:00,
2013-05-17 22:43:00,69.0,68.0,-100.00,SSE,154,6.0,10.0,98,0.00,,,0.01,0.000000,,2013-05-18 03:43:00,
2013-05-17 22:53:00,69.0,68.0,-100.00,SSE,154,6.0,10.0,98,0.00,,,0.01,0.000000,,2013-05-18 03:53:00,
2013-05-17 23:02:00,69.0,68.0,-100.00,SSE,154,6.0,10.0,98,0.00,,,0.01,0.000000,,2013-05-18 04:02:00,
2013-05-17 23:33:00,69.0,69.0,-100.00,SSE,154,5.0,9.0,100,0.00,,,0.01,0.000000,,2013-05-18 04:33:00,
2013-05-17 23:43:00,69.0,69.0,-100.00,SSE,154,5.0,9.0,100,0.00,,,0.01,0.000000,,2013-05-18 04:43:00,
2013-05-17 23:52:00,69.0,69.0,-100.00,SSE,154,5.0,9.0,100,0.00,,,0.01,0.000000,,2013-05-18 04:52:00,